sensor_id;sensor_type;location;lat;lon;timestamp;P1;durP1;ratioP1;P2;durP2;ratioP2
60030;SDS011;45901;47.600;9.890;2023-04-06T00:00:56;11.77;;;6.80;;
60030;SDS011;45901;47.600;9.890;2023-04-06T00:03:24;13.10;;;7.37;;
60030;SDS011;45901;47.600;9.890;2023-04-06T00:05:51;14.60;;;7.17;;
60030;SDS011;45901;47.600;9.890;2023-04-06T00:08:19;13.00;;;7.13;;
60030;SDS011;45901;47.600;9.890;2023-04-06T00:10:48;12.03;;;6.93;;
60030;SDS011;45901;47.600;9.890;2023-04-06T00:13:16;11.53;;;6.93;;
60030;SDS011;45901;47.600;9.890;2023-04-06T00:15:44;10.77;;;6.50;;
60030;SDS011;45901;47.600;9.890;2023-04-06T00:18:12;8.17;;;5.60;;
60030;SDS011;45901;47.600;9.890;2023-04-06T00:20:39;11.03;;;6.20;;
60030;SDS011;45901;47.600;9.890;2023-04-06T00:23:06;10.87;;;6.33;;
60030;SDS011;45901;47.600;9.890;2023-04-06T00:25:34;9.00;;;5.17;;
60030;SDS011;45901;47.600;9.890;2023-04-06T00:28:01;8.63;;;5.93;;
60030;SDS011;45901;47.600;9.890;2023-04-06T00:30:32;9.57;;;5.63;;
60030;SDS011;45901;47.600;9.890;2023-04-06T00:33:01;11.70;;;6.07;;
60030;SDS011;45901;47.600;9.890;2023-04-06T00:35:28;9.20;;;5.67;;
60030;SDS011;45901;47.600;9.890;2023-04-06T00:37:56;9.33;;;5.40;;
60030;SDS011;45901;47.600;9.890;2023-04-06T00:40:23;12.53;;;5.60;;
60030;SDS011;45901;47.600;9.890;2023-04-06T00:42:52;8.57;;;5.37;;
60030;SDS011;45901;47.600;9.890;2023-04-06T00:45:20;9.23;;;5.57;;
60030;SDS011;45901;47.600;9.890;2023-04-06T00:47:47;8.20;;;5.73;;
60030;SDS011;45901;47.600;9.890;2023-04-06T00:50:16;9.77;;;5.30;;
60030;SDS011;45901;47.600;9.890;2023-04-06T00:52:45;8.83;;;5.47;;
60030;SDS011;45901;47.600;9.890;2023-04-06T00:55:13;8.37;;;5.00;;
60030;SDS011;45901;47.600;9.890;2023-04-06T00:57:40;8.67;;;5.13;;
60030;SDS011;45901;47.600;9.890;2023-04-06T01:00:07;10.13;;;5.63;;
60030;SDS011;45901;47.600;9.890;2023-04-06T01:02:36;7.83;;;5.20;;
60030;SDS011;45901;47.600;9.890;2023-04-06T01:05:04;12.77;;;5.20;;
60030;SDS011;45901;47.600;9.890;2023-04-06T01:07:34;7.77;;;5.23;;
60030;SDS011;45901;47.600;9.890;2023-04-06T01:10:02;11.37;;;6.07;;
60030;SDS011;45901;47.600;9.890;2023-04-06T01:12:30;8.33;;;5.30;;
60030;SDS011;45901;47.600;9.890;2023-04-06T01:14:59;8.53;;;5.17;;
60030;SDS011;45901;47.600;9.890;2023-04-06T01:17:26;8.10;;;5.50;;
60030;SDS011;45901;47.600;9.890;2023-04-06T01:19:54;9.23;;;5.43;;
60030;SDS011;45901;47.600;9.890;2023-04-06T01:22:23;8.67;;;5.20;;
60030;SDS011;45901;47.600;9.890;2023-04-06T01:24:51;7.00;;;5.13;;
60030;SDS011;45901;47.600;9.890;2023-04-06T01:27:18;10.00;;;5.63;;
60030;SDS011;45901;47.600;9.890;2023-04-06T01:29:46;8.83;;;4.93;;
60030;SDS011;45901;47.600;9.890;2023-04-06T01:32:13;8.17;;;5.00;;
60030;SDS011;45901;47.600;9.890;2023-04-06T01:34:40;8.53;;;5.37;;
60030;SDS011;45901;47.600;9.890;2023-04-06T01:37:08;8.43;;;5.60;;
60030;SDS011;45901;47.600;9.890;2023-04-06T01:39:37;7.40;;;5.10;;
60030;SDS011;45901;47.600;9.890;2023-04-06T01:42:04;7.87;;;4.40;;
60030;SDS011;45901;47.600;9.890;2023-04-06T01:44:32;10.50;;;5.60;;
60030;SDS011;45901;47.600;9.890;2023-04-06T01:46:59;10.13;;;5.40;;
60030;SDS011;45901;47.600;9.890;2023-04-06T01:49:27;10.10;;;5.00;;
60030;SDS011;45901;47.600;9.890;2023-04-06T01:51:54;7.23;;;4.77;;
60030;SDS011;45901;47.600;9.890;2023-04-06T01:54:21;12.83;;;6.03;;
60030;SDS011;45901;47.600;9.890;2023-04-06T01:56:51;8.80;;;5.80;;
60030;SDS011;45901;47.600;9.890;2023-04-06T01:59:18;11.53;;;5.97;;
60030;SDS011;45901;47.600;9.890;2023-04-06T02:01:46;10.77;;;5.50;;
60030;SDS011;45901;47.600;9.890;2023-04-06T02:04:13;12.43;;;5.87;;
60030;SDS011;45901;47.600;9.890;2023-04-06T02:06:41;14.17;;;6.10;;
60030;SDS011;45901;47.600;9.890;2023-04-06T02:09:08;13.97;;;6.17;;
60030;SDS011;45901;47.600;9.890;2023-04-06T02:11:35;10.47;;;5.63;;
60030;SDS011;45901;47.600;9.890;2023-04-06T02:14:04;8.57;;;5.13;;
60030;SDS011;45901;47.600;9.890;2023-04-06T02:16:32;8.47;;;4.80;;
60030;SDS011;45901;47.600;9.890;2023-04-06T02:18:59;9.80;;;5.30;;
60030;SDS011;45901;47.600;9.890;2023-04-06T02:21:26;7.80;;;4.33;;
60030;SDS011;45901;47.600;9.890;2023-04-06T02:23:54;8.30;;;4.83;;
60030;SDS011;45901;47.600;9.890;2023-04-06T02:26:21;8.63;;;5.13;;
60030;SDS011;45901;47.600;9.890;2023-04-06T02:28:49;8.87;;;5.40;;
60030;SDS011;45901;47.600;9.890;2023-04-06T02:31:17;8.63;;;4.83;;
60030;SDS011;45901;47.600;9.890;2023-04-06T02:33:45;7.43;;;4.90;;
60030;SDS011;45901;47.600;9.890;2023-04-06T02:36:13;8.80;;;4.73;;
60030;SDS011;45901;47.600;9.890;2023-04-06T02:38:40;8.13;;;5.00;;
60030;SDS011;45901;47.600;9.890;2023-04-06T02:41:08;7.17;;;4.90;;
60030;SDS011;45901;47.600;9.890;2023-04-06T02:43:36;8.27;;;5.00;;
60030;SDS011;45901;47.600;9.890;2023-04-06T02:46:03;11.47;;;5.33;;
60030;SDS011;45901;47.600;9.890;2023-04-06T02:48:32;9.23;;;4.77;;
60030;SDS011;45901;47.600;9.890;2023-04-06T02:51:01;8.37;;;4.93;;
60030;SDS011;45901;47.600;9.890;2023-04-06T02:53:28;6.93;;;4.87;;
60030;SDS011;45901;47.600;9.890;2023-04-06T02:55:56;7.90;;;5.23;;
60030;SDS011;45901;47.600;9.890;2023-04-06T02:58:23;8.83;;;5.17;;
60030;SDS011;45901;47.600;9.890;2023-04-06T03:00:51;7.67;;;5.40;;
60030;SDS011;45901;47.600;9.890;2023-04-06T03:03:20;8.37;;;5.10;;
60030;SDS011;45901;47.600;9.890;2023-04-06T03:05:49;10.27;;;5.27;;
60030;SDS011;45901;47.600;9.890;2023-04-06T03:08:17;8.40;;;5.00;;
60030;SDS011;45901;47.600;9.890;2023-04-06T03:10:44;9.13;;;5.37;;
60030;SDS011;45901;47.600;9.890;2023-04-06T03:13:12;7.17;;;4.73;;
60030;SDS011;45901;47.600;9.890;2023-04-06T03:15:39;7.20;;;4.90;;
60030;SDS011;45901;47.600;9.890;2023-04-06T03:18:06;8.27;;;5.13;;
60030;SDS011;45901;47.600;9.890;2023-04-06T03:20:34;9.43;;;5.03;;
60030;SDS011;45901;47.600;9.890;2023-04-06T03:23:03;10.67;;;5.20;;
60030;SDS011;45901;47.600;9.890;2023-04-06T03:25:31;6.60;;;4.60;;
60030;SDS011;45901;47.600;9.890;2023-04-06T03:27:58;8.57;;;5.07;;
60030;SDS011;45901;47.600;9.890;2023-04-06T03:30:25;9.10;;;4.20;;
60030;SDS011;45901;47.600;9.890;2023-04-06T03:32:53;9.50;;;5.60;;
60030;SDS011;45901;47.600;9.890;2023-04-06T03:35:20;6.67;;;4.33;;
60030;SDS011;45901;47.600;9.890;2023-04-06T03:37:48;7.27;;;4.80;;
60030;SDS011;45901;47.600;9.890;2023-04-06T03:40:16;6.80;;;4.47;;
60030;SDS011;45901;47.600;9.890;2023-04-06T03:42:44;6.93;;;4.57;;
60030;SDS011;45901;47.600;9.890;2023-04-06T03:45:11;7.27;;;4.73;;
60030;SDS011;45901;47.600;9.890;2023-04-06T03:47:39;8.77;;;4.97;;
60030;SDS011;45901;47.600;9.890;2023-04-06T03:50:07;6.67;;;4.50;;
60030;SDS011;45901;47.600;9.890;2023-04-06T03:52:35;7.23;;;4.90;;
60030;SDS011;45901;47.600;9.890;2023-04-06T03:55:03;6.87;;;4.87;;
60030;SDS011;45901;47.600;9.890;2023-04-06T03:57:33;7.47;;;4.10;;
60030;SDS011;45901;47.600;9.890;2023-04-06T04:00:00;10.83;;;5.13;;
60030;SDS011;45901;47.600;9.890;2023-04-06T04:02:28;6.77;;;4.13;;
60030;SDS011;45901;47.600;9.890;2023-04-06T04:04:56;9.07;;;4.30;;
60030;SDS011;45901;47.600;9.890;2023-04-06T04:07:23;8.93;;;4.27;;
60030;SDS011;45901;47.600;9.890;2023-04-06T04:09:50;10.13;;;4.97;;
60030;SDS011;45901;47.600;9.890;2023-04-06T04:12:21;8.10;;;4.70;;
60030;SDS011;45901;47.600;9.890;2023-04-06T04:14:50;7.20;;;5.00;;
60030;SDS011;45901;47.600;9.890;2023-04-06T04:17:17;9.67;;;4.87;;
60030;SDS011;45901;47.600;9.890;2023-04-06T04:19:44;9.77;;;5.63;;
60030;SDS011;45901;47.600;9.890;2023-04-06T04:22:12;7.77;;;5.07;;
60030;SDS011;45901;47.600;9.890;2023-04-06T04:24:39;14.47;;;5.43;;
60030;SDS011;45901;47.600;9.890;2023-04-06T04:27:06;8.00;;;4.70;;
60030;SDS011;45901;47.600;9.890;2023-04-06T04:29:34;9.00;;;4.47;;
60030;SDS011;45901;47.600;9.890;2023-04-06T04:32:03;9.03;;;4.70;;
60030;SDS011;45901;47.600;9.890;2023-04-06T04:34:31;8.90;;;4.83;;
60030;SDS011;45901;47.600;9.890;2023-04-06T04:36:58;7.73;;;4.60;;
60030;SDS011;45901;47.600;9.890;2023-04-06T04:39:26;7.37;;;4.47;;
60030;SDS011;45901;47.600;9.890;2023-04-06T04:41:53;8.50;;;4.67;;
60030;SDS011;45901;47.600;9.890;2023-04-06T04:44:20;7.23;;;4.37;;
60030;SDS011;45901;47.600;9.890;2023-04-06T04:46:48;8.67;;;5.40;;
60030;SDS011;45901;47.600;9.890;2023-04-06T04:49:17;9.63;;;4.87;;
60030;SDS011;45901;47.600;9.890;2023-04-06T04:51:44;11.03;;;5.77;;
60030;SDS011;45901;47.600;9.890;2023-04-06T04:54:12;9.93;;;5.83;;
60030;SDS011;45901;47.600;9.890;2023-04-06T04:56:39;10.30;;;6.57;;
60030;SDS011;45901;47.600;9.890;2023-04-06T04:59:06;10.87;;;5.37;;
60030;SDS011;45901;47.600;9.890;2023-04-06T05:01:34;9.97;;;6.20;;
60030;SDS011;45901;47.600;9.890;2023-04-06T05:04:01;10.97;;;6.43;;
60030;SDS011;45901;47.600;9.890;2023-04-06T05:06:30;12.03;;;5.40;;
60030;SDS011;45901;47.600;9.890;2023-04-06T05:08:58;9.73;;;6.00;;
60030;SDS011;45901;47.600;9.890;2023-04-06T05:11:25;11.57;;;5.57;;
60030;SDS011;45901;47.600;9.890;2023-04-06T05:13:53;9.83;;;6.23;;
60030;SDS011;45901;47.600;9.890;2023-04-06T05:16:20;9.43;;;5.83;;
60030;SDS011;45901;47.600;9.890;2023-04-06T05:18:48;10.23;;;6.20;;
60030;SDS011;45901;47.600;9.890;2023-04-06T05:21:15;9.03;;;6.33;;
60030;SDS011;45901;47.600;9.890;2023-04-06T05:23:45;10.97;;;6.40;;
60030;SDS011;45901;47.600;9.890;2023-04-06T05:26:12;11.83;;;7.03;;
60030;SDS011;45901;47.600;9.890;2023-04-06T05:28:39;10.77;;;6.00;;
60030;SDS011;45901;47.600;9.890;2023-04-06T05:31:09;11.60;;;6.93;;
60030;SDS011;45901;47.600;9.890;2023-04-06T05:33:37;14.20;;;7.00;;
60030;SDS011;45901;47.600;9.890;2023-04-06T05:36:05;12.10;;;7.17;;
60030;SDS011;45901;47.600;9.890;2023-04-06T05:38:33;12.00;;;7.03;;
60030;SDS011;45901;47.600;9.890;2023-04-06T05:41:02;11.73;;;6.67;;
60030;SDS011;45901;47.600;9.890;2023-04-06T05:43:29;13.33;;;6.80;;
60030;SDS011;45901;47.600;9.890;2023-04-06T05:45:57;13.43;;;6.93;;
60030;SDS011;45901;47.600;9.890;2023-04-06T05:48:24;10.23;;;5.67;;
60030;SDS011;45901;47.600;9.890;2023-04-06T05:50:52;11.63;;;6.90;;
60030;SDS011;45901;47.600;9.890;2023-04-06T05:53:19;12.13;;;6.23;;
60030;SDS011;45901;47.600;9.890;2023-04-06T05:55:47;14.90;;;5.93;;
60030;SDS011;45901;47.600;9.890;2023-04-06T05:58:16;11.83;;;6.60;;
60030;SDS011;45901;47.600;9.890;2023-04-06T06:00:43;9.73;;;5.97;;
60030;SDS011;45901;47.600;9.890;2023-04-06T06:03:12;12.90;;;6.33;;
60030;SDS011;45901;47.600;9.890;2023-04-06T06:05:40;13.30;;;6.03;;
60030;SDS011;45901;47.600;9.890;2023-04-06T06:08:07;10.77;;;7.07;;
60030;SDS011;45901;47.600;9.890;2023-04-06T06:10:35;10.37;;;6.40;;
60030;SDS011;45901;47.600;9.890;2023-04-06T06:13:04;10.27;;;6.37;;
60030;SDS011;45901;47.600;9.890;2023-04-06T06:15:33;8.73;;;5.57;;
60030;SDS011;45901;47.600;9.890;2023-04-06T06:18:00;7.90;;;4.70;;
60030;SDS011;45901;47.600;9.890;2023-04-06T06:20:28;10.57;;;4.97;;
60030;SDS011;45901;47.600;9.890;2023-04-06T06:22:55;7.87;;;4.97;;
60030;SDS011;45901;47.600;9.890;2023-04-06T06:25:23;9.90;;;4.73;;
60030;SDS011;45901;47.600;9.890;2023-04-06T06:27:50;8.97;;;5.47;;
60030;SDS011;45901;47.600;9.890;2023-04-06T06:30:17;9.87;;;5.00;;
60030;SDS011;45901;47.600;9.890;2023-04-06T06:32:46;10.97;;;4.83;;
60030;SDS011;45901;47.600;9.890;2023-04-06T06:35:14;8.50;;;4.40;;
60030;SDS011;45901;47.600;9.890;2023-04-06T06:37:41;7.87;;;4.77;;
60030;SDS011;45901;47.600;9.890;2023-04-06T06:40:10;8.00;;;5.10;;
60030;SDS011;45901;47.600;9.890;2023-04-06T06:42:38;9.27;;;5.23;;
60030;SDS011;45901;47.600;9.890;2023-04-06T06:45:06;7.93;;;5.03;;
60030;SDS011;45901;47.600;9.890;2023-04-06T06:47:36;8.30;;;4.53;;
60030;SDS011;45901;47.600;9.890;2023-04-06T06:50:05;7.40;;;4.80;;
60030;SDS011;45901;47.600;9.890;2023-04-06T06:52:34;9.90;;;5.20;;
60030;SDS011;45901;47.600;9.890;2023-04-06T06:55:01;7.87;;;4.80;;
60030;SDS011;45901;47.600;9.890;2023-04-06T06:57:29;7.80;;;5.00;;
60030;SDS011;45901;47.600;9.890;2023-04-06T06:59:56;11.03;;;6.20;;
60030;SDS011;45901;47.600;9.890;2023-04-06T07:02:25;8.33;;;4.87;;
60030;SDS011;45901;47.600;9.890;2023-04-06T07:04:52;8.17;;;5.10;;
60030;SDS011;45901;47.600;9.890;2023-04-06T07:07:21;8.13;;;4.77;;
60030;SDS011;45901;47.600;9.890;2023-04-06T07:09:48;12.40;;;4.90;;
60030;SDS011;45901;47.600;9.890;2023-04-06T07:12:16;8.53;;;5.20;;
60030;SDS011;45901;47.600;9.890;2023-04-06T07:14:43;8.80;;;5.17;;
60030;SDS011;45901;47.600;9.890;2023-04-06T07:17:11;8.77;;;5.50;;
60030;SDS011;45901;47.600;9.890;2023-04-06T07:19:38;9.57;;;4.73;;
60030;SDS011;45901;47.600;9.890;2023-04-06T07:22:06;10.43;;;5.10;;
60030;SDS011;45901;47.600;9.890;2023-04-06T07:24:35;17.93;;;6.33;;
60030;SDS011;45901;47.600;9.890;2023-04-06T07:27:03;8.73;;;5.30;;
60030;SDS011;45901;47.600;9.890;2023-04-06T07:29:30;7.13;;;5.00;;
60030;SDS011;45901;47.600;9.890;2023-04-06T07:31:57;8.00;;;5.40;;
60030;SDS011;45901;47.600;9.890;2023-04-06T07:34:25;7.50;;;5.27;;
60030;SDS011;45901;47.600;9.890;2023-04-06T07:36:52;8.27;;;5.70;;
60030;SDS011;45901;47.600;9.890;2023-04-06T07:39:20;8.73;;;5.80;;
60030;SDS011;45901;47.600;9.890;2023-04-06T07:41:48;9.70;;;5.80;;
60030;SDS011;45901;47.600;9.890;2023-04-06T07:44:16;8.60;;;5.53;;
60030;SDS011;45901;47.600;9.890;2023-04-06T07:46:43;9.67;;;5.40;;
60030;SDS011;45901;47.600;9.890;2023-04-06T07:49:10;10.57;;;6.67;;
60030;SDS011;45901;47.600;9.890;2023-04-06T07:51:38;10.83;;;6.93;;
60030;SDS011;45901;47.600;9.890;2023-04-06T07:54:06;9.80;;;6.63;;
60030;SDS011;45901;47.600;9.890;2023-04-06T07:56:34;15.37;;;8.53;;
60030;SDS011;45901;47.600;9.890;2023-04-06T07:59:03;14.60;;;6.53;;
60030;SDS011;45901;47.600;9.890;2023-04-06T08:01:30;14.03;;;7.03;;
60030;SDS011;45901;47.600;9.890;2023-04-06T08:03:57;10.23;;;6.10;;
60030;SDS011;45901;47.600;9.890;2023-04-06T08:06:27;11.67;;;5.90;;
60030;SDS011;45901;47.600;9.890;2023-04-06T08:08:54;9.77;;;6.03;;
60030;SDS011;45901;47.600;9.890;2023-04-06T08:11:22;10.57;;;6.03;;
60030;SDS011;45901;47.600;9.890;2023-04-06T08:13:50;9.33;;;5.60;;
60030;SDS011;45901;47.600;9.890;2023-04-06T08:16:19;7.77;;;5.13;;
60030;SDS011;45901;47.600;9.890;2023-04-06T08:18:46;11.20;;;5.70;;
60030;SDS011;45901;47.600;9.890;2023-04-06T08:21:14;8.10;;;5.40;;
60030;SDS011;45901;47.600;9.890;2023-04-06T08:23:41;9.20;;;5.77;;
60030;SDS011;45901;47.600;9.890;2023-04-06T08:26:08;10.17;;;5.60;;
60030;SDS011;45901;47.600;9.890;2023-04-06T08:28:36;8.43;;;5.57;;
60030;SDS011;45901;47.600;9.890;2023-04-06T08:31:04;8.23;;;5.37;;
60030;SDS011;45901;47.600;9.890;2023-04-06T08:33:34;12.83;;;5.53;;
60030;SDS011;45901;47.600;9.890;2023-04-06T08:36:10;7.83;;;5.23;;
60030;SDS011;45901;47.600;9.890;2023-04-06T08:38:39;9.67;;;5.67;;
60030;SDS011;45901;47.600;9.890;2023-04-06T08:41:08;12.23;;;5.80;;
60030;SDS011;45901;47.600;9.890;2023-04-06T08:43:38;7.03;;;4.83;;
60030;SDS011;45901;47.600;9.890;2023-04-06T08:46:10;7.87;;;5.00;;
60030;SDS011;45901;47.600;9.890;2023-04-06T08:48:39;7.00;;;4.80;;
60030;SDS011;45901;47.600;9.890;2023-04-06T08:51:08;8.70;;;4.97;;
60030;SDS011;45901;47.600;9.890;2023-04-06T08:53:36;13.77;;;5.93;;
60030;SDS011;45901;47.600;9.890;2023-04-06T08:56:04;7.87;;;5.13;;
60030;SDS011;45901;47.600;9.890;2023-04-06T08:58:34;10.37;;;5.80;;
60030;SDS011;45901;47.600;9.890;2023-04-06T09:01:06;7.93;;;5.30;;
60030;SDS011;45901;47.600;9.890;2023-04-06T09:03:36;9.17;;;5.10;;
60030;SDS011;45901;47.600;9.890;2023-04-06T09:06:07;12.13;;;4.87;;
60030;SDS011;45901;47.600;9.890;2023-04-06T09:08:38;8.90;;;4.87;;
60030;SDS011;45901;47.600;9.890;2023-04-06T09:11:07;8.47;;;5.07;;
60030;SDS011;45901;47.600;9.890;2023-04-06T09:13:44;9.43;;;5.40;;
60030;SDS011;45901;47.600;9.890;2023-04-06T09:16:13;8.63;;;4.40;;
60030;SDS011;45901;47.600;9.890;2023-04-06T09:18:42;8.67;;;4.00;;
60030;SDS011;45901;47.600;9.890;2023-04-06T09:21:10;8.33;;;4.70;;
60030;SDS011;45901;47.600;9.890;2023-04-06T09:23:38;8.63;;;5.23;;
60030;SDS011;45901;47.600;9.890;2023-04-06T09:26:06;6.93;;;4.30;;
60030;SDS011;45901;47.600;9.890;2023-04-06T09:28:46;9.07;;;4.30;;
60030;SDS011;45901;47.600;9.890;2023-04-06T09:31:15;6.57;;;4.37;;
60030;SDS011;45901;47.600;9.890;2023-04-06T09:33:50;7.53;;;4.03;;
60030;SDS011;45901;47.600;9.890;2023-04-06T09:36:18;7.73;;;3.73;;
60030;SDS011;45901;47.600;9.890;2023-04-06T09:38:53;7.57;;;4.20;;
60030;SDS011;45901;47.600;9.890;2023-04-06T09:41:23;5.70;;;3.60;;
60030;SDS011;45901;47.600;9.890;2023-04-06T09:43:52;6.57;;;3.57;;
60030;SDS011;45901;47.600;9.890;2023-04-06T09:46:29;8.13;;;4.23;;
60030;SDS011;45901;47.600;9.890;2023-04-06T09:49:01;8.30;;;4.57;;
60030;SDS011;45901;47.600;9.890;2023-04-06T09:51:30;8.87;;;4.40;;
60030;SDS011;45901;47.600;9.890;2023-04-06T09:54:02;8.53;;;5.20;;
60030;SDS011;45901;47.600;9.890;2023-04-06T09:56:31;7.67;;;4.77;;
60030;SDS011;45901;47.600;9.890;2023-04-06T09:59:05;6.87;;;4.07;;
60030;SDS011;45901;47.600;9.890;2023-04-06T10:01:39;6.37;;;3.90;;
60030;SDS011;45901;47.600;9.890;2023-04-06T10:04:13;5.83;;;3.90;;
60030;SDS011;45901;47.600;9.890;2023-04-06T10:06:55;6.77;;;3.93;;
60030;SDS011;45901;47.600;9.890;2023-04-06T10:09:24;6.50;;;3.87;;
60030;SDS011;45901;47.600;9.890;2023-04-06T10:12:00;6.57;;;3.83;;
60030;SDS011;45901;47.600;9.890;2023-04-06T10:14:30;6.43;;;3.90;;
60030;SDS011;45901;47.600;9.890;2023-04-06T10:17:00;6.30;;;3.50;;
60030;SDS011;45901;47.600;9.890;2023-04-06T10:19:33;7.33;;;3.93;;
60030;SDS011;45901;47.600;9.890;2023-04-06T10:22:06;7.47;;;3.50;;
60030;SDS011;45901;47.600;9.890;2023-04-06T10:24:38;6.23;;;3.87;;
60030;SDS011;45901;47.600;9.890;2023-04-06T10:27:06;7.53;;;3.87;;
60030;SDS011;45901;47.600;9.890;2023-04-06T10:29:54;7.63;;;3.63;;
60030;SDS011;45901;47.600;9.890;2023-04-06T10:32:32;5.27;;;3.37;;
60030;SDS011;45901;47.600;9.890;2023-04-06T10:35:10;6.07;;;3.77;;
60030;SDS011;45901;47.600;9.890;2023-04-06T10:37:46;6.63;;;3.00;;
60030;SDS011;45901;47.600;9.890;2023-04-06T10:40:18;6.40;;;4.03;;
60030;SDS011;45901;47.600;9.890;2023-04-06T10:42:48;6.50;;;3.20;;
60030;SDS011;45901;47.600;9.890;2023-04-06T10:45:19;5.07;;;3.27;;
60030;SDS011;45901;47.600;9.890;2023-04-06T10:47:48;6.17;;;3.57;;
60030;SDS011;45901;47.600;9.890;2023-04-06T10:50:21;8.13;;;4.57;;
60030;SDS011;45901;47.600;9.890;2023-04-06T10:52:58;9.13;;;4.60;;
60030;SDS011;45901;47.600;9.890;2023-04-06T10:55:27;9.03;;;4.63;;
60030;SDS011;45901;47.600;9.890;2023-04-06T10:57:55;6.97;;;4.80;;
60030;SDS011;45901;47.600;9.890;2023-04-06T11:00:23;9.43;;;5.50;;
60030;SDS011;45901;47.600;9.890;2023-04-06T11:02:51;9.27;;;5.60;;
60030;SDS011;45901;47.600;9.890;2023-04-06T11:05:27;8.50;;;5.37;;
60030;SDS011;45901;47.600;9.890;2023-04-06T11:07:55;8.60;;;4.67;;
60030;SDS011;45901;47.600;9.890;2023-04-06T11:10:23;7.60;;;4.40;;
60030;SDS011;45901;47.600;9.890;2023-04-06T11:12:53;5.93;;;4.10;;
60030;SDS011;45901;47.600;9.890;2023-04-06T11:15:21;6.77;;;4.63;;
60030;SDS011;45901;47.600;9.890;2023-04-06T11:17:49;8.73;;;4.30;;
60030;SDS011;45901;47.600;9.890;2023-04-06T11:20:16;7.07;;;4.43;;
60030;SDS011;45901;47.600;9.890;2023-04-06T11:22:50;7.73;;;4.70;;
60030;SDS011;45901;47.600;9.890;2023-04-06T11:25:19;7.27;;;5.10;;
60030;SDS011;45901;47.600;9.890;2023-04-06T11:27:46;8.93;;;5.07;;
60030;SDS011;45901;47.600;9.890;2023-04-06T11:30:14;7.17;;;4.97;;
60030;SDS011;45901;47.600;9.890;2023-04-06T11:32:42;8.77;;;5.10;;
60030;SDS011;45901;47.600;9.890;2023-04-06T11:35:11;10.90;;;5.70;;
60030;SDS011;45901;47.600;9.890;2023-04-06T11:37:46;10.00;;;6.00;;
60030;SDS011;45901;47.600;9.890;2023-04-06T11:40:20;7.57;;;5.47;;
60030;SDS011;45901;47.600;9.890;2023-04-06T11:42:52;7.17;;;5.10;;
60030;SDS011;45901;47.600;9.890;2023-04-06T11:45:22;8.20;;;5.00;;
60030;SDS011;45901;47.600;9.890;2023-04-06T11:47:59;8.67;;;5.13;;
60030;SDS011;45901;47.600;9.890;2023-04-06T11:50:31;7.30;;;5.17;;
60030;SDS011;45901;47.600;9.890;2023-04-06T11:53:01;9.10;;;5.70;;
60030;SDS011;45901;47.600;9.890;2023-04-06T11:55:29;11.17;;;5.50;;
60030;SDS011;45901;47.600;9.890;2023-04-06T11:58:03;9.10;;;5.77;;
60030;SDS011;45901;47.600;9.890;2023-04-06T12:00:32;10.57;;;5.50;;
60030;SDS011;45901;47.600;9.890;2023-04-06T12:02:59;9.37;;;5.60;;
60030;SDS011;45901;47.600;9.890;2023-04-06T12:05:27;8.80;;;5.63;;
60030;SDS011;45901;47.600;9.890;2023-04-06T12:07:55;7.40;;;5.30;;
60030;SDS011;45901;47.600;9.890;2023-04-06T12:10:24;8.43;;;5.57;;
60030;SDS011;45901;47.600;9.890;2023-04-06T12:12:51;8.47;;;5.53;;
60030;SDS011;45901;47.600;9.890;2023-04-06T12:15:19;7.40;;;5.43;;
60030;SDS011;45901;47.600;9.890;2023-04-06T12:17:46;7.37;;;5.17;;
60030;SDS011;45901;47.600;9.890;2023-04-06T12:20:14;8.43;;;6.13;;
60030;SDS011;45901;47.600;9.890;2023-04-06T12:22:43;9.37;;;6.00;;
60030;SDS011;45901;47.600;9.890;2023-04-06T12:25:10;10.07;;;6.30;;
60030;SDS011;45901;47.600;9.890;2023-04-06T12:27:39;9.30;;;5.93;;
60030;SDS011;45901;47.600;9.890;2023-04-06T12:30:07;9.40;;;6.37;;
60030;SDS011;45901;47.600;9.890;2023-04-06T12:32:35;10.37;;;6.53;;
60030;SDS011;45901;47.600;9.890;2023-04-06T12:35:03;16.70;;;6.23;;
60030;SDS011;45901;47.600;9.890;2023-04-06T12:37:30;10.67;;;6.13;;
60030;SDS011;45901;47.600;9.890;2023-04-06T12:39:58;9.93;;;6.70;;
60030;SDS011;45901;47.600;9.890;2023-04-06T12:42:26;12.10;;;6.90;;
60030;SDS011;45901;47.600;9.890;2023-04-06T12:44:55;10.50;;;7.00;;
60030;SDS011;45901;47.600;9.890;2023-04-06T12:47:22;9.17;;;6.80;;
60030;SDS011;45901;47.600;9.890;2023-04-06T12:49:51;9.97;;;7.17;;
60030;SDS011;45901;47.600;9.890;2023-04-06T12:52:19;9.73;;;6.40;;
60030;SDS011;45901;47.600;9.890;2023-04-06T12:54:47;12.57;;;6.83;;
60030;SDS011;45901;47.600;9.890;2023-04-06T12:57:14;11.33;;;6.80;;
60030;SDS011;45901;47.600;9.890;2023-04-06T12:59:42;10.27;;;6.47;;
60030;SDS011;45901;47.600;9.890;2023-04-06T13:02:12;12.30;;;6.63;;
60030;SDS011;45901;47.600;9.890;2023-04-06T13:04:40;8.57;;;6.60;;
60030;SDS011;45901;47.600;9.890;2023-04-06T13:07:07;9.33;;;6.20;;
60030;SDS011;45901;47.600;9.890;2023-04-06T13:09:35;8.87;;;6.50;;
60030;SDS011;45901;47.600;9.890;2023-04-06T13:12:02;10.10;;;7.30;;
60030;SDS011;45901;47.600;9.890;2023-04-06T13:14:30;11.00;;;6.53;;
60030;SDS011;45901;47.600;9.890;2023-04-06T13:16:58;11.83;;;6.67;;
60030;SDS011;45901;47.600;9.890;2023-04-06T13:19:27;12.93;;;7.20;;
60030;SDS011;45901;47.600;9.890;2023-04-06T13:21:56;10.87;;;6.93;;
60030;SDS011;45901;47.600;9.890;2023-04-06T13:24:23;9.03;;;6.40;;
60030;SDS011;45901;47.600;9.890;2023-04-06T13:26:51;10.23;;;6.83;;
60030;SDS011;45901;47.600;9.890;2023-04-06T13:29:18;9.03;;;6.60;;
60030;SDS011;45901;47.600;9.890;2023-04-06T13:31:45;12.57;;;7.20;;
60030;SDS011;45901;47.600;9.890;2023-04-06T13:34:13;10.20;;;7.10;;
60030;SDS011;45901;47.600;9.890;2023-04-06T13:36:42;11.97;;;7.47;;
60030;SDS011;45901;47.600;9.890;2023-04-06T13:39:10;9.17;;;6.73;;
60030;SDS011;45901;47.600;9.890;2023-04-06T13:41:37;9.73;;;6.50;;
60030;SDS011;45901;47.600;9.890;2023-04-06T13:44:05;10.83;;;6.90;;
60030;SDS011;45901;47.600;9.890;2023-04-06T13:46:32;10.10;;;6.60;;
60030;SDS011;45901;47.600;9.890;2023-04-06T13:49:00;10.27;;;7.47;;
60030;SDS011;45901;47.600;9.890;2023-04-06T13:51:27;11.23;;;6.83;;
60030;SDS011;45901;47.600;9.890;2023-04-06T13:53:57;8.80;;;6.60;;
60030;SDS011;45901;47.600;9.890;2023-04-06T13:56:24;10.47;;;6.83;;
60030;SDS011;45901;47.600;9.890;2023-04-06T13:58:53;8.53;;;6.27;;
60030;SDS011;45901;47.600;9.890;2023-04-06T14:01:21;8.70;;;6.37;;
60030;SDS011;45901;47.600;9.890;2023-04-06T14:03:50;11.10;;;6.27;;
60030;SDS011;45901;47.600;9.890;2023-04-06T14:06:17;16.70;;;5.90;;
60030;SDS011;45901;47.600;9.890;2023-04-06T14:08:44;7.93;;;5.60;;
60030;SDS011;45901;47.600;9.890;2023-04-06T14:11:13;9.40;;;5.77;;
60030;SDS011;45901;47.600;9.890;2023-04-06T14:13:41;8.83;;;6.03;;
60030;SDS011;45901;47.600;9.890;2023-04-06T14:16:08;9.13;;;6.03;;
60030;SDS011;45901;47.600;9.890;2023-04-06T14:18:36;9.60;;;5.83;;
60030;SDS011;45901;47.600;9.890;2023-04-06T14:21:04;9.03;;;6.30;;
60030;SDS011;45901;47.600;9.890;2023-04-06T14:23:31;9.93;;;5.43;;
60030;SDS011;45901;47.600;9.890;2023-04-06T14:26:00;10.97;;;6.43;;
60030;SDS011;45901;47.600;9.890;2023-04-06T14:28:31;12.00;;;6.33;;
60030;SDS011;45901;47.600;9.890;2023-04-06T14:31:00;9.17;;;5.97;;
60030;SDS011;45901;47.600;9.890;2023-04-06T14:33:30;8.60;;;5.73;;
60030;SDS011;45901;47.600;9.890;2023-04-06T14:35:57;11.03;;;6.70;;
60030;SDS011;45901;47.600;9.890;2023-04-06T14:38:25;10.03;;;6.17;;
60030;SDS011;45901;47.600;9.890;2023-04-06T14:40:52;10.50;;;5.90;;
60030;SDS011;45901;47.600;9.890;2023-04-06T14:43:20;10.33;;;5.53;;
60030;SDS011;45901;47.600;9.890;2023-04-06T14:45:49;8.83;;;5.27;;
60030;SDS011;45901;47.600;9.890;2023-04-06T14:48:18;11.27;;;5.87;;
60030;SDS011;45901;47.600;9.890;2023-04-06T14:50:55;9.27;;;6.13;;